.
WxDataArchive / Data Records for 2006-05-07
2006-05-06 May 2006 2006-05-08

Data Records for Sunday, 07 May 2006

Time	Temp	Chill	HIndex	Humid	Dewpt	 Wind 	HiWind	WindDir	Rain 	Barom 
-----	----	-----	------	-----	-----	------	------	-------	-----	----- 
00:00	43.6	43.6	43.6	70	34.5	0	0	---	0.00	30.028 
00:05	43.5	43.5	43.5	71	34.7	0	0	---	0.00	30.028 
00:10	43.3	43.3	43.3	72	34.9	0	0	---	0.00	30.028 
00:15	43.3	43.3	43.3	73	35.2	0	0	---	0.00	30.029 
00:20	43.1	43.1	43.1	73	35.0	0	0	---	0.00	30.029 
00:25	42.9	42.9	42.9	75	35.5	0	0	---	0.00	30.029 
00:30	42.8	42.8	42.8	77	36.1	0	0	---	0.00	30.027 
00:35	42.6	42.6	42.6	79	36.6	0	0	---	0.00	30.027 
00:40	42.6	42.6	42.6	79	36.6	0	0	---	0.00	30.027 
00:45	42.5	42.5	42.5	79	36.5	0	0	---	0.00	30.028 
00:50	42.3	42.3	42.3	80	36.6	0	1	90	0.00	30.028 
00:55	42.2	42.2	42.2	80	36.5	0	1	---	0.00	30.028 
01:00	42.1	42.1	42.1	79	36.1	0	0	---	0.00	30.028 
01:05	41.8	41.8	41.8	77	35.1	0	0	---	0.00	30.028 
01:10	41.6	41.6	41.6	73	33.6	0	0	---	0.00	30.028 
01:15	41.6	41.6	41.6	70	32.6	0	0	---	0.00	30.026 
01:20	41.5	41.5	41.5	68	31.7	0	0	---	0.00	30.026 
01:25	41.6	41.6	41.6	67	31.5	0	0	---	0.00	30.026 
01:30	41.8	41.8	41.8	67	31.7	0	0	---	0.00	30.026 
01:35	41.8	41.8	41.8	67	31.7	0	0	---	0.00	30.026 
01:40	41.8	41.8	41.8	67	31.7	0	0	---	0.00	30.026 
01:45	41.8	41.8	41.8	67	31.7	0	0	---	0.00	30.025 
01:50	41.8	41.8	41.8	68	32.0	0	0	---	0.00	30.025 
01:55	41.6	41.6	41.6	69	32.2	0	0	---	0.00	30.025 
02:00	41.6	41.6	41.6	69	32.2	0	0	---	0.00	30.023 
02:05	41.5	41.5	41.5	69	32.1	0	0	---	0.00	30.023 
02:10	41.5	41.5	41.5	70	32.5	0	0	---	0.00	30.023 
02:15	41.3	41.3	41.3	69	31.9	0	0	---	0.00	30.022 
02:20	41.3	41.3	41.3	70	32.3	0	0	---	0.00	30.022 
02:25	41.3	41.3	41.3	70	32.3	0	0	---	0.00	30.022 
02:30	41.2	41.2	41.2	71	32.5	0	0	---	0.00	30.022 
02:35	41.1	41.1	41.1	71	32.4	0	0	---	0.00	30.022 
02:40	41.1	41.1	41.1	71	32.4	0	0	---	0.00	30.022 
02:45	40.9	40.9	40.9	72	32.6	0	0	---	0.00	30.020 
02:50	40.8	40.8	40.8	73	32.8	0	0	---	0.00	30.020 
02:55	40.6	40.6	40.6	73	32.6	0	0	---	0.00	30.020 
03:00	40.5	40.5	40.5	74	32.9	0	0	---	0.00	30.016 
03:05	40.3	40.3	40.3	74	32.7	0	0	---	0.00	30.016 
03:10	40.2	40.2	40.2	74	32.6	0	0	---	0.00	30.016 
03:15	40.1	40.1	40.1	75	32.8	0	0	---	0.00	30.019 
03:20	39.9	39.9	39.9	76	33.0	0	0	---	0.00	30.019 
03:25	39.8	39.8	39.8	77	33.2	0	0	---	0.00	30.019 
03:30	39.5	39.5	39.5	77	32.9	0	0	---	0.00	30.014 
03:35	39.3	39.3	39.3	77	32.7	0	0	---	0.00	30.014 
03:40	39.3	39.3	39.3	78	33.0	0	0	---	0.00	30.014 
03:45	39.2	39.2	39.2	79	33.2	0	0	---	0.00	30.014 
03:50	39.1	39.1	39.1	78	32.8	0	0	---	0.00	30.014 
03:55	38.9	38.9	38.9	79	33.0	0	0	---	0.00	30.014 
04:00	38.8	38.8	38.8	79	32.9	0	0	---	0.00	30.017 
04:05	38.6	38.6	38.6	80	33.0	0	0	---	0.00	30.017 
04:10	38.5	38.5	38.5	80	32.9	0	0	---	0.00	30.017 
04:15	38.5	38.5	38.5	80	32.9	0	0	---	0.00	30.018 
04:20	38.3	38.3	38.3	80	32.7	0	0	---	0.00	30.018 
04:25	38.2	38.2	38.2	81	32.9	0	0	---	0.00	30.018 
04:30	38.0	38.0	38.0	81	32.7	0	0	---	0.00	30.021 
04:35	37.9	37.9	37.9	81	32.6	0	0	---	0.00	30.021 
04:40	37.8	37.8	37.8	81	32.5	0	0	---	0.00	30.021 
04:45	37.6	37.6	37.6	83	32.9	0	0	---	0.00	30.018 
04:50	37.6	37.6	37.6	83	32.9	0	0	---	0.00	30.018 
04:55	37.5	37.5	37.5	83	32.8	0	0	---	0.00	30.018 
05:00	37.5	37.5	37.5	84	33.1	0	0	---	0.00	30.017 
05:05	37.5	37.5	37.5	84	33.1	0	0	---	0.00	30.017 
05:10	37.5	37.5	37.5	84	33.1	0	0	---	0.00	30.017 
05:15	37.3	37.3	37.3	84	32.9	0	0	---	0.00	30.016 
05:20	37.3	37.3	37.3	84	32.9	0	0	---	0.00	30.016 
05:25	37.2	37.2	37.2	85	33.1	0	0	---	0.00	30.016 
05:30	37.2	37.2	37.2	85	33.1	0	0	---	0.00	30.017 
05:35	37.2	37.2	37.2	86	33.4	0	0	---	0.00	30.017 
05:40	37.0	37.0	37.0	86	33.2	0	0	---	0.00	30.017 
05:45	37.0	37.0	37.0	86	33.2	0	0	---	0.00	30.015 
05:50	36.9	36.9	36.9	86	33.1	0	0	---	0.00	30.015 
05:55	36.8	36.8	36.8	86	33.0	0	0	---	0.00	30.015 
06:00	36.8	36.8	36.8	86	33.0	0	0	---	0.00	30.019 
06:05	36.6	36.6	36.6	87	33.1	0	0	---	0.00	30.019 
06:10	36.6	36.6	36.6	87	33.1	0	0	---	0.00	30.019 
06:15	36.5	36.5	36.5	87	33.0	0	0	---	0.00	30.021 
06:20	36.5	36.5	36.5	88	33.3	0	0	---	0.00	30.021 
06:25	36.5	36.5	36.5	88	33.3	0	0	---	0.00	30.021 
06:30	36.5	36.5	36.5	88	33.3	0	0	---	0.00	30.025 
06:35	36.5	36.5	36.5	88	33.3	0	0	---	0.00	30.025 
06:40	36.5	36.5	36.5	88	33.3	0	0	---	0.00	30.025 
06:45	36.5	36.5	36.5	88	33.3	0	0	---	0.00	30.026 
06:50	36.6	36.6	36.6	88	33.4	0	0	---	0.00	30.026 
06:55	36.6	36.6	36.6	88	33.4	0	0	---	0.00	30.026 
07:00	36.8	36.8	36.8	88	33.6	0	0	---	0.00	30.030 
07:05	36.9	36.9	36.9	89	34.0	0	0	---	0.00	30.030 
07:10	37.3	37.3	37.3	89	34.4	0	1	90	0.00	30.030 
07:15	38.5	38.5	38.5	85	34.4	0	1	90	0.00	30.034 
07:20	39.9	39.9	39.9	80	34.2	1	3	90	0.00	30.034 
07:25	41.1	41.1	41.1	77	34.4	1	2	90	0.00	30.034 
07:30	41.9	41.9	41.9	76	34.9	1	2	90	0.00	30.036 
07:35	42.6	42.6	42.6	74	34.9	1	3	90	0.00	30.036 
07:40	42.9	42.9	42.9	75	35.5	1	2	90	0.00	30.036 
07:45	42.9	42.9	42.9	74	35.2	1	3	90	0.00	30.043 
07:50	43.2	43.2	43.2	74	35.5	1	3	90	0.00	30.043 
07:55	43.8	43.8	43.8	72	35.4	2	4	90	0.00	30.043 
08:00	44.2	44.2	44.2	72	35.8	2	4	90	0.00	30.046 
08:05	44.8	44.8	44.8	70	35.6	1	4	90	0.00	30.046 
08:10	45.4	45.4	45.4	70	36.2	2	3	112	0.00	30.046 
08:15	46.2	46.2	46.2	68	36.2	1	3	112	0.00	30.050 
08:20	47.0	47.0	47.0	67	36.6	2	3	112	0.00	30.050 
08:25	47.3	47.3	47.3	69	37.7	2	5	90	0.00	30.050 
08:30	47.6	47.6	47.6	67	37.2	1	4	90	0.00	30.053 
08:35	47.3	47.3	47.3	68	37.3	1	3	90	0.00	30.053 
08:40	47.3	47.3	47.3	70	38.0	1	3	90	0.00	30.053 
08:45	47.4	47.4	47.4	69	37.7	0	2	90	0.00	30.051 
08:50	47.4	47.4	47.4	69	37.7	1	3	90	0.00	30.051 
08:55	47.6	47.6	47.6	69	37.9	1	3	90	0.00	30.051 
09:00	48.3	48.3	48.3	69	38.6	1	4	90	0.00	30.052 
09:05	49.5	49.5	49.5	65	38.2	1	4	90	0.00	30.052 
09:10	50.4	50.4	50.4	61	37.5	2	5	90	0.00	30.052 
09:15	51.0	51.0	51.0	58	36.7	1	4	90	0.00	30.056 
09:20	51.4	51.4	51.4	56	36.2	2	4	112	0.00	30.056 
09:25	51.9	51.9	51.9	57	37.1	2	4	112	0.00	30.056 
09:30	52.3	52.3	52.3	54	36.2	1	2	90	0.00	30.056 
09:35	52.9	52.9	52.9	53	36.2	1	3	90	0.00	30.056 
09:40	53.6	53.6	53.6	51	35.9	1	3	112	0.00	30.056 
09:45	53.6	53.6	53.6	53	36.9	2	5	90	0.00	30.051 
09:50	53.8	53.8	53.8	52	36.6	2	5	112	0.00	30.051 
09:55	54.2	54.2	54.2	48	34.9	2	5	90	0.00	30.051 
10:00	54.5	54.5	54.5	47	34.7	2	5	90	0.00	30.046 
10:05	54.8	54.8	54.8	46	34.4	2	4	90	0.00	30.046 
10:10	55.4	55.4	55.4	48	36.0	2	3	90	0.00	30.046 
10:15	56.2	56.2	56.2	45	35.1	2	4	112	0.00	30.049 
10:20	56.2	56.2	56.2	45	35.1	2	4	90	0.00	30.049 
10:25	56.7	56.7	56.7	45	35.6	2	4	112	0.00	30.049 
10:30	57.3	57.3	57.3	45	36.1	2	4	112	0.00	30.053 
10:35	57.5	57.5	57.5	46	36.9	2	4	90	0.00	30.053 
10:40	57.6	57.6	57.6	45	36.4	2	5	112	0.00	30.053 
10:45	58.3	58.3	58.3	44	36.5	1	3	112	0.00	30.051 
10:50	58.7	58.7	58.7	45	37.4	1	4	112	0.00	30.051 
10:55	58.6	58.6	58.6	49	39.5	2	4	90	0.00	30.051 
11:00	59.2	59.2	59.2	46	38.4	1	3	135	0.00	30.046 
11:05	59.8	59.8	59.8	43	37.3	2	4	135	0.00	30.046 
11:10	59.8	59.8	59.8	46	39.0	1	3	90	0.00	30.046 
11:15	60.4	60.4	60.4	40	36.0	1	4	90	0.00	30.046 
11:20	60.7	60.7	60.7	39	35.6	2	5	90	0.00	30.046 
11:25	61.2	61.2	61.2	39	36.0	1	4	112	0.00	30.046 
11:30	61.2	61.2	61.2	35	33.3	3	5	90	0.00	30.043 
11:35	61.5	61.5	61.5	43	38.8	1	4	90	0.00	30.043 
11:40	61.8	61.8	61.8	34	33.1	2	5	68	0.00	30.043 
11:45	61.8	61.8	61.8	33	32.4	2	5	90	0.00	30.039 
11:50	62.0	62.0	62.0	34	33.3	2	4	68	0.00	30.039 
11:55	62.0	62.0	62.0	34	33.3	2	6	248	0.00	30.039 
12:00	62.0	62.0	62.0	33	32.6	3	5	90	0.00	30.039 
12:05	61.8	61.8	61.8	37	35.3	2	4	90	0.00	30.039 
12:10	62.1	62.1	62.1	35	34.1	2	5	90	0.00	30.039 
12:15	62.6	62.6	62.6	34	33.8	2	5	90	0.00	30.037 
12:20	63.2	63.2	63.2	35	35.1	1	5	112	0.00	30.037 
12:25	62.9	62.9	62.9	31	31.8	2	5	90	0.00	30.037 
12:30	63.2	63.2	63.2	32	32.9	2	5	90	0.00	30.029 
12:35	63.2	63.2	63.2	32	32.9	3	6	90	0.00	30.029 
12:40	63.5	63.5	63.5	31	32.3	2	6	112	0.00	30.029 
12:45	63.7	63.7	63.7	33	34.1	1	5	90	0.00	30.025 
12:50	63.7	63.7	63.7	30	31.7	3	4	90	0.00	30.025 
12:55	63.9	63.9	63.9	31	32.7	2	4	112	0.00	30.025 
13:00	64.2	64.2	64.2	27	29.5	2	4	248	0.00	30.023 
13:05	64.3	64.3	64.3	30	32.2	2	3	112	0.00	30.023 
13:10	64.7	64.7	64.7	25	28.1	2	5	112	0.00	30.023 
13:15	64.8	64.8	64.8	26	29.1	2	4	112	0.00	30.015 
13:20	64.8	64.8	64.8	31	33.5	1	5	112	0.00	30.015 
13:25	64.8	64.8	64.8	30	32.6	2	4	90	0.00	30.015 
13:30	64.8	64.8	64.8	30	32.6	3	7	90	0.00	30.011 
13:35	64.7	64.7	64.7	28	30.8	2	5	90	0.00	30.011 
13:40	65.0	65.0	65.0	27	30.2	2	10	90	0.00	30.011 
13:45	64.7	64.7	64.7	26	29.0	3	7	90	0.00	30.008 
13:50	64.7	64.7	64.7	27	29.9	3	8	90	0.00	30.008 
13:55	65.2	65.2	65.2	28	31.3	2	5	90	0.00	30.008 
14:00	65.6	65.6	65.6	29	32.5	2	5	90	0.00	30.003 
14:05	65.6	65.6	65.6	27	30.7	3	7	112	0.00	30.003 
14:10	65.3	65.3	65.3	27	30.5	3	6	90	0.00	30.003 
14:15	65.3	65.3	65.3	28	31.4	2	5	90	0.00	29.995 
14:20	65.8	65.8	65.8	28	31.8	2	5	90	0.00	29.995 
14:25	66.1	66.1	66.1	31	34.6	2	4	90	0.00	29.995 
14:30	66.1	66.1	66.1	27	31.1	3	7	112	0.00	29.992 
14:35	66.3	66.3	66.3	29	33.1	2	7	315	0.00	29.992 
14:40	65.8	65.8	65.8	27	30.9	2	9	90	0.00	29.992 
14:45	65.8	65.8	65.8	29	32.7	3	6	90	0.00	29.992 
14:50	66.3	66.3	66.3	28	32.2	1	4	68	0.00	29.992 
14:55	66.9	66.9	66.9	27	31.8	2	5	90	0.00	29.992 
15:00	67.4	67.4	67.4	34	38.1	2	5	90	0.00	29.987 
15:05	67.6	67.6	67.6	27	32.4	1	4	90	0.00	29.987 
15:10	67.6	67.6	67.6	31	35.9	1	4	45	0.00	29.987 
15:15	67.3	67.3	67.3	25	30.3	2	6	90	0.00	29.982 
15:20	67.3	67.3	67.3	27	32.2	2	5	112	0.00	29.982 
15:25	67.1	67.1	67.1	25	30.1	2	5	90	0.00	29.982 
15:30	67.4	67.4	67.4	24	29.4	2	4	112	0.00	29.979 
15:35	67.6	67.6	67.6	24	29.5	2	5	112	0.00	29.979 
15:40	67.9	67.9	67.9	22	27.7	1	4	135	0.00	29.979 
15:45	67.9	67.9	67.9	25	30.8	2	4	68	0.00	29.977 
15:50	67.8	67.8	67.8	24	29.7	1	3	68	0.00	29.977 
15:55	67.9	67.9	67.9	22	27.7	0	2	68	0.00	29.977 
16:00	68.4	68.4	68.4	25	31.2	1	2	68	0.00	29.972 
16:05	68.8	68.8	68.8	25	31.5	2	4	90	0.00	29.972 
16:10	68.1	68.1	68.1	22	27.8	3	7	90	0.00	29.972 
16:15	67.8	67.8	67.8	20	25.3	1	3	90	0.00	29.965 
16:20	68.1	68.1	68.1	22	27.8	2	7	90	0.00	29.965 
16:25	67.4	67.4	67.4	21	26.1	2	5	90	0.00	29.965 
16:30	67.3	67.3	67.3	27	32.2	2	5	112	0.00	29.965 
16:35	67.4	67.4	67.4	24	29.4	1	5	90	0.00	29.965 
16:40	67.6	67.6	67.6	22	27.4	2	4	90	0.00	29.965 
16:45	68.1	68.1	68.1	31	36.3	0	2	68	0.00	29.961 
16:50	68.3	68.3	68.3	26	32.1	1	3	90	0.00	29.961 
16:55	68.3	68.3	68.3	24	30.1	2	4	112	0.00	29.961 
17:00	67.9	67.9	67.9	22	27.7	2	4	135	0.00	29.959 
17:05	67.8	67.8	67.8	22	27.6	1	4	112	0.00	29.959 
17:10	68.1	68.1	68.1	21	26.7	1	3	112	0.00	29.959 
17:15	68.1	68.1	68.1	22	27.8	1	4	90	0.00	29.957 
17:20	68.1	68.1	68.1	26	31.9	2	5	90	0.00	29.957 
17:25	68.1	68.1	68.1	22	27.8	3	7	90	0.00	29.957 
17:30	68.1	68.1	68.1	25	30.9	1	4	112	0.00	29.954 
17:35	67.9	67.9	67.9	22	27.7	2	6	112	0.00	29.954 
17:40	68.1	68.1	68.1	21	26.7	2	4	112	0.00	29.954 
17:45	67.4	67.4	67.4	22	27.2	3	6	90	0.00	29.958 
17:50	67.3	67.3	67.3	24	29.3	2	6	90	0.00	29.958 
17:55	67.4	67.4	67.4	21	26.1	0	2	112	0.00	29.958 
18:00	67.6	67.6	67.6	22	27.4	1	4	112	0.00	29.957 
18:05	67.4	67.4	67.4	23	28.3	1	3	90	0.00	29.957 
18:10	67.3	67.3	67.3	23	28.2	1	4	90	0.00	29.957 
18:15	67.1	67.1	67.1	22	27.0	1	3	68	0.00	29.959 
18:20	66.9	66.9	66.9	25	29.9	1	2	68	0.00	29.959 
18:25	66.9	66.9	66.9	26	30.9	1	3	68	0.00	29.959 
18:30	66.9	66.9	66.9	24	28.9	1	4	112	0.00	29.957 
18:35	66.8	66.8	66.8	23	27.8	2	4	90	0.00	29.957 
18:40	66.8	66.8	66.8	23	27.8	2	4	112	0.00	29.957 
18:45	66.8	66.8	66.8	24	28.8	1	2	90	0.00	29.955 
18:50	66.6	66.6	66.6	23	27.6	2	5	90	0.00	29.955 
18:55	66.4	66.4	66.4	23	27.5	2	5	90	0.00	29.955 
19:00	66.1	66.1	66.1	25	29.3	2	4	90	0.00	29.952 
19:05	66.0	66.0	66.0	24	28.2	2	5	90	0.00	29.952 
19:10	65.8	65.8	65.8	23	27.0	2	5	112	0.00	29.952 
19:15	65.8	65.8	65.8	24	28.0	2	4	68	0.00	29.949 
19:20	65.6	65.6	65.6	25	28.8	1	3	90	0.00	29.949 
19:25	65.5	65.5	65.5	25	28.7	1	2	90	0.00	29.949 
19:30	65.5	65.5	65.5	25	28.7	1	3	112	0.00	29.948 
19:35	65.3	65.3	65.3	24	27.6	1	3	90	0.00	29.948 
19:40	65.2	65.2	65.2	26	29.5	2	5	90	0.00	29.948 
19:45	65.0	65.0	65.0	25	28.3	2	3	90	0.00	29.956 
19:50	64.8	64.8	64.8	25	28.2	1	4	90	0.00	29.956 
19:55	64.7	64.7	64.7	25	28.1	1	3	112	0.00	29.956 
20:00	64.5	64.5	64.5	25	27.9	1	3	112	0.00	29.958 
20:05	64.2	64.2	64.2	25	27.6	1	3	112	0.00	29.958 
20:10	64.0	64.0	64.0	25	27.5	1	3	112	0.00	29.958 
20:15	63.7	63.7	63.7	27	29.1	0	3	112	0.00	29.954 
20:20	63.2	63.2	63.2	29	30.4	0	1	112	0.00	29.954 
20:25	62.7	62.7	62.7	28	29.1	0	1	112	0.00	29.954 
20:30	62.3	62.3	62.3	29	29.6	0	0	---	0.00	29.958 
20:35	61.6	61.6	61.6	30	29.9	0	0	---	0.00	29.958 
20:40	60.9	60.9	60.9	32	30.8	0	0	---	0.00	29.958 
20:45	60.2	60.2	60.2	33	31.0	0	0	---	0.00	29.963 
20:50	59.5	59.5	59.5	35	31.8	0	0	---	0.00	29.963 
20:55	58.7	58.7	58.7	36	31.8	0	0	---	0.00	29.963 
21:00	58.3	58.3	58.3	36	31.5	0	0	---	0.00	29.970 
21:05	57.6	57.6	57.6	37	31.5	0	0	---	0.00	29.970 
21:10	57.2	57.2	57.2	39	32.5	0	0	---	0.00	29.970 
21:15	56.7	56.7	56.7	39	32.0	0	0	---	0.00	29.970 
21:20	56.2	56.2	56.2	40	32.2	0	0	---	0.00	29.970 
21:25	55.7	55.7	55.7	41	32.4	0	0	---	0.00	29.970 
21:30	55.3	55.3	55.3	40	31.4	0	0	---	0.00	29.974 
21:35	54.8	54.8	54.8	42	32.2	0	0	---	0.00	29.974 
21:40	54.5	54.5	54.5	44	33.0	0	0	---	0.00	29.974 
21:45	53.9	53.9	53.9	46	33.6	0	1	112	0.00	29.976 
21:50	53.5	53.5	53.5	47	33.8	0	0	---	0.00	29.976 
21:55	53.1	53.1	53.1	48	33.9	0	0	---	0.00	29.976 
22:00	52.6	52.6	52.6	51	35.0	0	0	---	0.00	29.979 
22:05	52.2	52.2	52.2	52	35.1	0	0	---	0.00	29.979 
22:10	51.9	51.9	51.9	52	34.8	0	0	---	0.00	29.979 
22:15	51.6	51.6	51.6	52	34.6	0	0	---	0.00	29.983 
22:20	51.4	51.4	51.4	53	34.8	0	0	---	0.00	29.983 
22:25	51.3	51.3	51.3	55	35.7	0	0	---	0.00	29.983 
22:30	51.0	51.0	51.0	55	35.4	0	0	---	0.00	29.985 
22:35	50.7	50.7	50.7	55	35.1	0	0	---	0.00	29.985 
22:40	50.5	50.5	50.5	57	35.8	0	0	---	0.00	29.985 
22:45	50.2	50.2	50.2	56	35.1	0	0	---	0.00	29.988 
22:50	49.9	49.9	49.9	57	35.3	0	0	---	0.00	29.988 
22:55	49.8	49.8	49.8	58	35.6	0	0	---	0.00	29.988 
23:00	49.4	49.4	49.4	60	36.1	0	0	---	0.00	29.988 
23:05	49.2	49.2	49.2	60	35.9	0	0	---	0.00	29.988 
23:10	48.8	48.8	48.8	61	36.0	0	0	---	0.00	29.988 
23:15	48.6	48.6	48.6	62	36.2	0	0	---	0.00	29.986 
23:20	48.2	48.2	48.2	62	35.8	0	0	---	0.00	29.986 
23:25	47.9	47.9	47.9	62	35.5	0	0	---	0.00	29.986 
23:30	47.6	47.6	47.6	63	35.6	0	0	---	0.00	29.986 
23:35	47.4	47.4	47.4	63	35.4	0	0	---	0.00	29.986 
23:40	47.1	47.1	47.1	63	35.2	0	0	---	0.00	29.986 
23:45	47.0	47.0	47.0	65	35.9	0	0	---	0.00	29.984 
23:50	46.7	46.7	46.7	65	35.6	0	0	---	0.00	29.984 
23:55	46.4	46.4	46.4	67	36.0	0	0	---	0.00	29.984 

CoCoRaHS
IN-AL-39
A2 Web Hosting
Creative Commons License
GoDaddy
Look for:

loaded 2017-12-10 21:32:14 • last modified 2010-11-18 10:43:29
Privacy PolicyDisclaimer
• wx.awcolley.com is powered by PmWiki v.2002016 •
• all content (unless otherwise noted) © 2017 A W Colley